Boeing 767-322ER from United Airlines at Amsterdam.
 Regi:N648UA  LARGER
 MSN Year:25285 1993-07
 Date of picture:2015-06-26 09:41
 Position:V from 18R
 Flight: ARR ORD UA909 Chicago O Hara Airport United States
 Logs: Boeing 767-300 ER United Airlines N648UA D04 UA 909 Chicago 09:30 09:32 Geland
A884B6 N648UA --- 2015-06-26 09:03 B767-322 United States United Air Lines Inc Veurne, BE 2015-06-26 07:03:05
2015/06/26 01:21 UAL909 UAL909 - N648UA a/c registered in United States United Airlines B76
 Metar SA 26/06/2015 09:25 METAR EHAM 260925Z 22007KT 180V270 CAVOK 22/12 Q1018 NOSIG=
 Hits: 20 ID: 2455

Debriefing: Photographed movements of Airports in NW-Europe.
The images of our site attendant is in authorisation from Queen of Sky.
Copying of images of this site have been prohibited in which manner without the authorisation of the photographer.
In behalf of the crew :"Thank you visiting us" - Contact
Factsheets Boeing, 767-322ER, United Airlines, made by De Plane! © 2006 - 2022 All rights reserved


.